ADDS METAR Data INFO
IDs: Format: Raw Decoded Include TAF

Data at: 0110 UTC 24 Jun 2018

KAXN 240053Z AUTO 19007KT 10SM CLR 27/14 A2976 RMK AO2 SLP068 T02670139
KAXN 232353Z AUTO 20009KT 10SM CLR 27/14 A2974 RMK AO2 SLP065 T02720144 10283 20261 58003
KAXN 232253Z AUTO 18005KT 10SM CLR 28/14 A2975 RMK AO2 SLP067 T02780144
KAXN 232153Z AUTO 19004KT 10SM CLR 28/14 A2975 RMK AO2 SLP067 T02780139
KAXN 232053Z AUTO 15007KT 10SM CLR 28/14 A2975 RMK AO2 LTG DSNT NE SLP068 T02780144 58010
KAXN 231953Z AUTO 20010KT 10SM CLR 27/14 A2977 RMK AO2 SLP073 T02720139
KAXN 231853Z AUTO 22008KT 10SM FEW047 27/14 A2978 RMK AO2 SLP077 T02720139
KAXN 231753Z AUTO 19005KT 10SM SCT044 SCT060 27/15 A2978 RMK AO2 SLP078 T02670150 10267 20200 58002
KAXN 231653Z AUTO 22006KT 10SM FEW075 26/16 A2979 RMK AO2 SLP081 T02610156
KAXN 231553Z AUTO 24005KT 10SM FEW045 SCT060 BKN080 24/17 A2979 RMK AO2 SLP081 T02440167
KAXN 231453Z AUTO 19005KT 10SM SCT040 SCT050 OVC070 24/18 A2979 RMK AO2 SLP081 T02390178 53001
KAXN 231353Z AUTO VRB03KT 10SM BKN039 23/17 A2979 RMK AO2 SLP080 T02280172
KAXN 231253Z AUTO 21004KT 10SM CLR 22/17 A2979 RMK AO2 SLP079 T02170167
KAXN 231153Z AUTO 00000KT 10SM SCT048 20/17 A2979 RMK AO2 SLP080 7//// T02000167 10200 20178 55001
KAXN 231053Z AUTO 00000KT 10SM CLR 18/16 A2978 RMK AO2 SLP079 T01830156
KAXN 230953Z AUTO 14004KT 10SM CLR 18/16 A2978 RMK AO2 SLP079 T01830156
KAXN 230853Z AUTO 16005KT 10SM CLR 18/16 A2979 RMK AO2 SLP081 T01830161 58010
KAXN 230753Z AUTO 13003KT 10SM CLR 18/16 A2981 RMK AO2 SLP088 T01830156
KAXN 230653Z AUTO 19004KT 10SM CLR 19/16 A2982 RMK AO2 SLP092 T01940156
KAXN 230553Z AUTO 15005KT 10SM CLR 19/16 A2982 RMK AO2 SLP091 T01940161 10261 20189 402720189 53002
KAXN 230453Z AUTO 00000KT 10SM CLR 19/16 A2982 RMK AO2 SLP091 T01940156
KAXN 230353Z AUTO 12003KT 10SM CLR 21/16 A2981 RMK AO2 SLPNO T02110161
KAXN 230253Z AUTO 16003KT 10SM CLR 22/16 A2981 RMK AO2 SLPNO T02220156 53001
KAXN 230153Z AUTO 19005KT 10SM CLR 24/16 A2981 RMK AO2 SLPNO T02390156
KAXN 230053Z AUTO 17004KT 10SM CLR 26/14 A2980 RMK AO2 SLPNO T02610139
KAXN 222353Z AUTO 20004KT 10SM CLR 26/14 A2981 RMK AO2 SLPNO T02560144 10272 20256 58020
KAXN 222253Z AUTO 19007KT 10SM CLR 26/14 A2984 RMK AO2 SLPNO T02610144
KAXN 222153Z AUTO 21006KT 10SM FEW050 27/14 A2986 RMK AO2 SLPNO T02670139
KAXN 222053Z AUTO 21009KT 10SM CLR 27/13 A2987 RMK AO2 SLPNO T02720133 58009
KAXN 221953Z AUTO VRB05KT 10SM CLR 27/13 A2989 RMK AO2 SLPNO T02670133
KAXN 221853Z AUTO 16008KT 10SM CLR 27/13 A2990 RMK AO2 SLPNO T02670133
KAXN 221753Z AUTO 12007KT 10SM CLR 27/14 A2990 RMK AO2 SLPNO 6//// T02670144
KAXN 221653Z AUTO 09005KT 10SM 26/13 A2992 RMK AO2 SLPNO T02560133
KAXN 221453Z AUTO 13003KT 10SM CLR 22/16 A2993 RMK AO2 SLP131 T02220156 58005 $
KAXN 221422Z AUTO 10005KT 10SM FEW001 21/15 A2993 RMK AO2 T02110150 $
KAXN 221353Z AUTO 09004KT 10SM CLR 21/14 A2994 RMK AO2 SLP132 T02060144